Time,TemperatureF,DewpointF,PressureIn,WindDirection,WindDirectionDegrees,WindSpeedMPH,WindSpeedGustMPH,Humidity,HourlyPrecipIn,Conditions,Clouds,dailyrainin,SoftwareType,DateUTC
2013-03-09 00:00:00,35.0,0.0,29.89,East,96,2.0,2.0,94,-99.99,,,-99.99,,2013-03-09 08:00:00,
2013-03-09 00:08:00,35.0,0.0,29.89,ENE,66,2.0,2.0,96,-99.99,,,-99.99,,2013-03-09 08:08:00,
2013-03-09 00:16:00,0.0,0.0,-0.01,North,0,0.0,0.0,0,-99.99,,,-99.99,,2013-03-09 08:16:00,
2013-03-09 00:24:00,35.0,0.0,29.90,SSE,161,2.0,2.0,95,-99.99,,,-99.99,,2013-03-09 08:24:00,
2013-03-09 00:32:00,34.0,0.0,29.91,NE,49,1.0,1.0,94,-99.99,,,-99.99,,2013-03-09 08:32:00,
2013-03-09 00:40:00,0.0,0.0,-0.01,North,0,0.0,0.0,0,-99.99,,,-99.99,,2013-03-09 08:40:00,
2013-03-09 00:48:00,34.0,0.0,29.91,NE,38,2.0,2.0,94,-99.99,,,-99.99,,2013-03-09 08:48:00,
2013-03-09 00:56:00,34.0,0.0,29.91,NE,39,3.0,3.0,93,-99.99,,,-99.99,,2013-03-09 08:56:00,
2013-03-09 01:04:00,35.0,0.0,29.91,ENE,66,2.0,2.0,93,-99.99,,,-99.99,,2013-03-09 09:04:00,
2013-03-09 01:12:00,0.0,0.0,-0.01,North,0,0.0,0.0,0,-99.99,,,-99.99,,2013-03-09 09:12:00,
2013-03-09 01:20:00,36.0,0.0,29.91,ENE,63,0.0,0.0,96,-99.99,,,-99.99,,2013-03-09 09:20:00,
2013-03-09 01:28:00,36.0,0.0,29.91,ENE,63,0.0,0.0,96,-99.99,,,-99.99,,2013-03-09 09:28:00,
2013-03-09 01:36:00,33.0,0.0,29.91,NNW,335,5.0,5.0,94,-99.99,,,-99.99,,2013-03-09 09:36:00,
2013-03-09 01:44:00,33.0,0.0,29.91,North,357,5.0,6.0,95,-99.99,,,-99.99,,2013-03-09 09:44:00,
2013-03-09 01:52:00,32.0,0.0,29.91,North,0,5.0,5.0,96,-99.99,,,-99.99,,2013-03-09 09:52:00,
2013-03-09 02:00:00,32.0,0.0,29.91,North,354,3.0,3.0,97,-99.99,,,-99.99,,2013-03-09 10:00:00,
2013-03-09 02:08:00,0.0,0.0,-0.01,North,0,0.0,0.0,0,-99.99,,,-99.99,,2013-03-09 10:08:00,
2013-03-09 02:16:00,0.0,0.0,-0.01,North,0,0.0,0.0,0,-99.99,,,-99.99,,2013-03-09 10:16:00,
2013-03-09 02:24:00,32.0,0.0,29.91,North,6,5.0,5.0,96,-99.99,,,-99.99,,2013-03-09 10:24:00,
2013-03-09 02:32:00,32.0,0.0,29.91,West,267,3.0,3.0,94,-99.99,,,-99.99,,2013-03-09 10:32:00,
2013-03-09 02:40:00,31.0,0.0,29.92,NW,306,2.0,2.0,94,-99.99,,,-99.99,,2013-03-09 10:40:00,
2013-03-09 02:48:00,31.0,0.0,29.92,WSW,248,0.0,0.0,95,-99.99,,,-99.99,,2013-03-09 10:48:00,
2013-03-09 02:56:00,31.0,0.0,29.92,West,281,0.0,1.0,93,-99.99,,,-99.99,,2013-03-09 10:56:00,
2013-03-09 03:04:00,31.0,0.0,29.92,WNW,291,3.0,3.0,95,-99.99,,,-99.99,,2013-03-09 11:04:00,
2013-03-09 03:12:00,30.0,0.0,29.92,West,277,3.0,5.0,95,-99.99,,,-99.99,,2013-03-09 11:12:00,
2013-03-09 03:20:00,30.0,0.0,29.93,WNW,292,3.0,3.0,94,-99.99,,,-99.99,,2013-03-09 11:20:00,
2013-03-09 03:28:00,31.0,0.0,29.92,WSW,254,0.0,1.0,94,-99.99,,,-99.99,,2013-03-09 11:28:00,
2013-03-09 03:36:00,30.0,0.0,29.92,SW,214,0.0,0.0,96,-99.99,,,-99.99,,2013-03-09 11:36:00,
2013-03-09 03:44:00,30.0,0.0,29.93,NNE,25,2.0,2.0,96,-99.99,,,-99.99,,2013-03-09 11:44:00,
2013-03-09 03:52:00,30.0,0.0,29.93,North,2,2.0,2.0,95,-99.99,,,-99.99,,2013-03-09 11:52:00,
2013-03-09 04:00:00,30.0,0.0,29.93,North,361,2.0,2.0,95,-99.99,,,-99.99,,2013-03-09 12:00:00,
2013-03-09 04:08:00,30.0,0.0,29.94,West,269,2.0,2.0,93,-99.99,,,-99.99,,2013-03-09 12:08:00,
2013-03-09 04:16:00,29.0,0.0,29.94,WSW,254,3.0,6.0,95,-99.99,,,-99.99,,2013-03-09 12:16:00,
2013-03-09 04:24:00,29.0,0.0,29.94,WSW,250,3.0,3.0,94,-99.99,,,-99.99,,2013-03-09 12:24:00,
2013-03-09 04:32:00,30.0,0.0,29.95,West,265,5.0,5.0,96,-99.99,,,-99.99,,2013-03-09 12:32:00,
2013-03-09 04:40:00,29.0,0.0,29.95,WSW,242,5.0,5.0,94,-99.99,,,-99.99,,2013-03-09 12:40:00,
2013-03-09 04:48:00,29.0,0.0,29.95,WSW,244,3.0,3.0,96,-99.99,,,-99.99,,2013-03-09 12:48:00,
2013-03-09 04:56:00,30.0,0.0,29.95,SW,225,2.0,2.0,95,-99.99,,,-99.99,,2013-03-09 12:56:00,
2013-03-09 05:04:00,29.0,0.0,29.95,SE,128,2.0,2.0,95,-99.99,,,-99.99,,2013-03-09 13:04:00,
2013-03-09 05:12:00,29.0,0.0,29.96,South,184,2.0,2.0,94,-99.99,,,-99.99,,2013-03-09 13:12:00,
2013-03-09 05:20:00,29.0,0.0,29.96,SSE,152,0.0,0.0,96,-99.99,,,-99.99,,2013-03-09 13:20:00,
2013-03-09 05:28:00,29.0,0.0,29.97,East,96,0.0,0.0,96,-99.99,,,-99.99,,2013-03-09 13:28:00,
2013-03-09 05:36:00,29.0,0.0,29.97,ENE,59,0.0,0.0,98,-99.99,,,-99.99,,2013-03-09 13:36:00,
2013-03-09 05:44:00,29.0,0.0,29.97,South,179,0.0,0.0,96,-99.99,,,-99.99,,2013-03-09 13:44:00,
2013-03-09 05:52:00,29.0,0.0,29.97,SSE,156,0.0,1.0,94,-99.99,,,-99.99,,2013-03-09 13:52:00,
2013-03-09 06:00:00,29.0,0.0,29.98,West,280,2.0,2.0,94,-99.99,,,-99.99,,2013-03-09 14:00:00,
2013-03-09 06:08:00,28.0,0.0,29.98,SW,218,5.0,5.0,96,-99.99,,,-99.99,,2013-03-09 14:08:00,
2013-03-09 06:16:00,28.0,0.0,29.99,WSW,248,0.0,3.0,95,-99.99,,,-99.99,,2013-03-09 14:16:00,
2013-03-09 06:24:00,29.0,0.0,29.99,ENE,77,0.0,0.0,95,-99.99,,,-99.99,,2013-03-09 14:24:00,
2013-03-09 06:32:00,29.0,0.0,29.99,ENE,73,0.0,2.0,95,-99.99,,,-99.99,,2013-03-09 14:32:00,
2013-03-09 06:40:00,29.0,0.0,30.00,WNW,285,2.0,2.0,97,-99.99,,,-99.99,,2013-03-09 14:40:00,
2013-03-09 06:48:00,29.0,0.0,30.00,NNE,17,2.0,2.0,95,-99.99,,,-99.99,,2013-03-09 14:48:00,
2013-03-09 06:56:00,30.0,0.0,30.00,WNW,285,2.0,3.0,95,-99.99,,,-99.99,,2013-03-09 14:56:00,
2013-03-09 07:04:00,30.0,0.0,30.00,NE,44,0.0,2.0,97,-99.99,,,-99.99,,2013-03-09 15:04:00,
2013-03-09 07:12:00,30.0,0.0,30.00,NNW,341,2.0,2.0,95,-99.99,,,-99.99,,2013-03-09 15:12:00,
2013-03-09 07:20:00,30.0,0.0,30.01,ENE,59,1.0,1.0,97,-99.99,,,-99.99,,2013-03-09 15:20:00,
2013-03-09 07:28:00,30.0,0.0,30.01,SSE,167,0.0,0.0,95,-99.99,,,-99.99,,2013-03-09 15:28:00,
2013-03-09 07:36:00,31.0,0.0,30.01,WSW,237,1.0,1.0,96,-99.99,,,-99.99,,2013-03-09 15:36:00,
2013-03-09 07:44:00,32.0,0.0,30.01,SSE,151,0.0,0.0,97,-99.99,,,-99.99,,2013-03-09 15:44:00,
2013-03-09 07:52:00,31.0,0.0,30.01,South,186,3.0,3.0,98,-99.99,,,-99.99,,2013-03-09 15:52:00,
2013-03-09 08:00:00,32.0,0.0,30.02,South,186,1.0,3.0,96,-99.99,,,-99.99,,2013-03-09 16:00:00,
2013-03-09 08:08:00,32.0,0.0,30.02,SW,215,2.0,2.0,97,-99.99,,,-99.99,,2013-03-09 16:08:00,
2013-03-09 08:16:00,33.0,0.0,30.02,SSW,211,0.0,1.0,96,-99.99,,,-99.99,,2013-03-09 16:16:00,
2013-03-09 08:24:00,34.0,0.0,30.03,SE,126,0.0,1.0,96,-99.99,,,-99.99,,2013-03-09 16:24:00,
2013-03-09 08:32:00,36.0,0.0,30.03,South,175,0.0,0.0,97,-99.99,,,-99.99,,2013-03-09 16:32:00,
2013-03-09 08:40:00,36.0,0.0,30.03,SW,233,2.0,2.0,96,-99.99,,,-99.99,,2013-03-09 16:40:00,
2013-03-09 08:48:00,38.0,0.0,30.03,South,174,2.0,2.0,96,-99.99,,,-99.99,,2013-03-09 16:48:00,
2013-03-09 08:56:00,39.0,0.0,30.03,South,179,2.0,2.0,94,-99.99,,,-99.99,,2013-03-09 16:56:00,
2013-03-09 09:04:00,40.0,0.0,30.02,SSW,203,3.0,3.0,91,-99.99,,,-99.99,,2013-03-09 17:04:00,
2013-03-09 09:12:00,40.0,0.0,30.03,East,84,1.0,5.0,89,-99.99,,,-99.99,,2013-03-09 17:12:00,
2013-03-09 09:20:00,42.0,0.0,30.03,SSE,148,5.0,5.0,87,-99.99,,,-99.99,,2013-03-09 17:20:00,
2013-03-09 09:28:00,44.0,0.0,30.03,SSE,147,2.0,3.0,83,-99.99,,,-99.99,,2013-03-09 17:28:00,
2013-03-09 09:36:00,45.0,0.0,30.03,South,171,5.0,6.0,82,-99.99,,,-99.99,,2013-03-09 17:36:00,
2013-03-09 09:44:00,46.0,0.0,30.03,SSE,161,5.0,5.0,75,-99.99,,,-99.99,,2013-03-09 17:44:00,
2013-03-09 09:52:00,49.0,0.0,30.04,ESE,122,3.0,3.0,70,-99.99,,,-99.99,,2013-03-09 17:52:00,
2013-03-09 10:00:00,49.0,0.0,30.03,SSE,147,6.0,6.0,74,-99.99,,,-99.99,,2013-03-09 18:00:00,
2013-03-09 10:08:00,52.0,0.0,30.03,South,182,7.0,7.0,66,-99.99,,,-99.99,,2013-03-09 18:08:00,
2013-03-09 10:16:00,53.0,0.0,30.03,SE,145,6.0,6.0,60,-99.99,,,-99.99,,2013-03-09 18:16:00,
2013-03-09 10:24:00,53.0,0.0,30.04,ESE,109,8.0,8.0,62,-99.99,,,-99.99,,2013-03-09 18:24:00,
2013-03-09 10:32:00,54.0,0.0,30.04,East,100,9.0,9.0,59,-99.99,,,-99.99,,2013-03-09 18:32:00,
2013-03-09 10:40:00,54.0,0.0,30.04,ESE,112,7.0,8.0,55,-99.99,,,-99.99,,2013-03-09 18:40:00,
2013-03-09 10:48:00,0.0,0.0,-0.01,North,0,0.0,0.0,0,-99.99,,,-99.99,,2013-03-09 18:48:00,
2013-03-09 10:56:00,56.0,0.0,30.04,SSE,147,10.0,10.0,53,-99.99,,,-99.99,,2013-03-09 18:56:00,
2013-03-09 11:04:00,57.0,0.0,30.04,SE,139,7.0,7.0,49,-99.99,,,-99.99,,2013-03-09 19:04:00,
2013-03-09 11:12:00,59.0,0.0,30.04,SE,132,6.0,6.0,42,-99.99,,,-99.99,,2013-03-09 19:12:00,
2013-03-09 11:20:00,59.0,0.0,30.04,SE,146,3.0,3.0,38,-99.99,,,-99.99,,2013-03-09 19:20:00,
2013-03-09 11:28:00,59.0,0.0,30.04,SSE,155,7.0,7.0,38,-99.99,,,-99.99,,2013-03-09 19:28:00,
2013-03-09 11:36:00,58.0,0.0,30.04,SW,217,3.0,7.0,37,-99.99,,,-99.99,,2013-03-09 19:36:00,
2013-03-09 11:44:00,60.0,0.0,30.04,SE,139,8.0,8.0,39,-99.99,,,-99.99,,2013-03-09 19:44:00,
2013-03-09 11:52:00,60.0,0.0,30.03,SSE,165,12.0,12.0,39,-99.99,,,-99.99,,2013-03-09 19:52:00,
2013-03-09 12:00:00,61.0,0.0,30.04,SE,130,9.0,9.0,35,-99.99,,,-99.99,,2013-03-09 20:00:00,
2013-03-09 12:08:00,0.0,0.0,-0.01,North,0,0.0,0.0,0,-99.99,,,-99.99,,2013-03-09 20:08:00,
2013-03-09 12:16:00,0.0,0.0,-0.01,North,0,0.0,0.0,0,-99.99,,,-99.99,,2013-03-09 20:16:00,
2013-03-09 12:24:00,62.0,0.0,30.04,East,83,7.0,12.0,37,-99.99,,,-99.99,,2013-03-09 20:24:00,
2013-03-09 12:32:00,62.0,0.0,30.04,SE,126,5.0,7.0,34,-99.99,,,-99.99,,2013-03-09 20:32:00,
2013-03-09 12:40:00,61.0,0.0,30.03,ESE,103,8.0,8.0,36,-99.99,,,-99.99,,2013-03-09 20:40:00,
2013-03-09 12:48:00,61.0,0.0,30.03,ESE,116,6.0,6.0,34,-99.99,,,-99.99,,2013-03-09 20:48:00,
2013-03-09 12:56:00,61.0,0.0,30.03,SSW,197,2.0,5.0,36,-99.99,,,-99.99,,2013-03-09 20:56:00,
2013-03-09 13:04:00,62.0,0.0,30.03,East,89,10.0,10.0,37,-99.99,,,-99.99,,2013-03-09 21:04:00,
2013-03-09 13:12:00,0.0,0.0,-0.01,North,0,0.0,0.0,0,-99.99,,,-99.99,,2013-03-09 21:12:00,
2013-03-09 13:20:00,66.0,0.0,30.01,NNE,22,13.0,14.0,20,-99.99,,,-99.99,,2013-03-09 21:20:00,
2013-03-09 13:28:00,67.0,0.0,30.01,NNE,28,14.0,14.0,21,-99.99,,,-99.99,,2013-03-09 21:28:00,
2013-03-09 13:36:00,0.0,0.0,-0.01,North,0,0.0,0.0,0,-99.99,,,-99.99,,2013-03-09 21:36:00,
2013-03-09 13:44:00,68.0,0.0,30.01,NE,43,12.0,12.0,18,-99.99,,,-99.99,,2013-03-09 21:44:00,
2013-03-09 13:52:00,68.0,0.0,30.01,NE,45,15.0,15.0,17,-99.99,,,-99.99,,2013-03-09 21:52:00,
2013-03-09 14:00:00,67.0,0.0,30.01,NE,50,14.0,15.0,19,-99.99,,,-99.99,,2013-03-09 22:00:00,
2013-03-09 14:08:00,67.0,0.0,30.01,ENE,62,14.0,15.0,17,-99.99,,,-99.99,,2013-03-09 22:08:00,
2013-03-09 14:16:00,68.0,0.0,30.02,NE,39,16.0,18.0,19,-99.99,,,-99.99,,2013-03-09 22:16:00,
2013-03-09 14:24:00,68.0,0.0,30.02,NE,38,18.0,22.0,17,-99.99,,,-99.99,,2013-03-09 22:24:00,
2013-03-09 14:32:00,69.0,0.0,30.02,NE,42,16.0,18.0,19,-99.99,,,-99.99,,2013-03-09 22:32:00,
2013-03-09 14:40:00,67.0,0.0,30.02,NE,56,14.0,17.0,17,-99.99,,,-99.99,,2013-03-09 22:40:00,
2013-03-09 14:48:00,66.0,0.0,30.03,ENE,60,12.0,14.0,20,-99.99,,,-99.99,,2013-03-09 22:48:00,
2013-03-09 14:56:00,67.0,0.0,30.03,NE,46,18.0,18.0,20,-99.99,,,-99.99,,2013-03-09 22:56:00,
2013-03-09 15:04:00,66.0,0.0,30.03,NE,50,10.0,12.0,22,-99.99,,,-99.99,,2013-03-09 23:04:00,
2013-03-09 15:12:00,66.0,0.0,30.03,SE,145,6.0,7.0,29,-99.99,,,-99.99,,2013-03-09 23:12:00,
2013-03-09 15:20:00,67.0,0.0,30.03,NE,41,14.0,14.0,18,-99.99,,,-99.99,,2013-03-09 23:20:00,
2013-03-09 15:28:00,67.0,0.0,30.03,NE,43,14.0,15.0,19,-99.99,,,-99.99,,2013-03-09 23:28:00,
2013-03-09 15:36:00,67.0,0.0,30.03,NE,43,14.0,15.0,18,-99.99,,,-99.99,,2013-03-09 23:36:00,
2013-03-09 15:44:00,66.0,0.0,30.03,NE,45,16.0,16.0,19,-99.99,,,-99.99,,2013-03-09 23:44:00,
2013-03-09 15:52:00,66.0,0.0,30.02,NNE,21,16.0,18.0,17,-99.99,,,-99.99,,2013-03-09 23:52:00,
2013-03-09 16:00:00,66.0,0.0,30.03,NNE,23,9.0,14.0,16,-99.99,,,-99.99,,2013-03-10 00:00:00,
2013-03-09 16:08:00,67.0,0.0,30.03,NNE,22,16.0,16.0,18,-99.99,,,-99.99,,2013-03-10 00:08:00,
2013-03-09 16:16:00,67.0,0.0,30.03,NNE,16,15.0,18.0,16,-99.99,,,-99.99,,2013-03-10 00:16:00,
2013-03-09 16:24:00,67.0,0.0,30.04,NNE,15,17.0,18.0,15,-99.99,,,-99.99,,2013-03-10 00:24:00,
2013-03-09 16:32:00,66.0,0.0,30.04,NNE,28,17.0,18.0,15,-99.99,,,-99.99,,2013-03-10 00:32:00,
2013-03-09 16:40:00,66.0,0.0,30.04,NNE,12,18.0,18.0,15,-99.99,,,-99.99,,2013-03-10 00:40:00,
2013-03-09 16:48:00,66.0,0.0,30.04,North,8,18.0,18.0,17,-99.99,,,-99.99,,2013-03-10 00:48:00,
2013-03-09 16:56:00,65.0,0.0,30.05,NNE,17,16.0,16.0,16,-99.99,,,-99.99,,2013-03-10 00:56:00,
2013-03-09 17:04:00,65.0,0.0,30.05,NNE,23,18.0,20.0,19,-99.99,,,-99.99,,2013-03-10 01:04:00,
2013-03-09 17:12:00,65.0,0.0,30.05,NNE,27,14.0,17.0,16,-99.99,,,-99.99,,2013-03-10 01:12:00,
2013-03-09 17:20:00,64.0,0.0,30.06,NNE,26,14.0,16.0,18,-99.99,,,-99.99,,2013-03-10 01:20:00,
2013-03-09 17:28:00,64.0,0.0,30.06,NNE,22,9.0,14.0,21,-99.99,,,-99.99,,2013-03-10 01:28:00,
2013-03-09 17:36:00,63.0,0.0,30.06,NE,41,13.0,14.0,19,-99.99,,,-99.99,,2013-03-10 01:36:00,
2013-03-09 17:44:00,63.0,0.0,30.06,NE,34,13.0,14.0,17,-99.99,,,-99.99,,2013-03-10 01:44:00,
2013-03-09 17:52:00,62.0,0.0,30.07,NNE,29,13.0,13.0,18,-99.99,,,-99.99,,2013-03-10 01:52:00,
2013-03-09 18:00:00,62.0,0.0,30.07,NNE,32,13.0,13.0,18,-99.99,,,-99.99,,2013-03-10 02:00:00,
2013-03-09 18:08:00,61.0,0.0,30.07,NNE,32,14.0,14.0,20,-99.99,,,-99.99,,2013-03-10 02:08:00,
2013-03-09 18:16:00,60.0,0.0,30.08,NNE,28,10.0,10.0,19,-99.99,,,-99.99,,2013-03-10 02:16:00,
2013-03-09 18:24:00,60.0,0.0,30.08,NE,45,12.0,12.0,19,-99.99,,,-99.99,,2013-03-10 02:24:00,
2013-03-09 18:32:00,59.0,0.0,30.09,NNE,27,10.0,10.0,20,-99.99,,,-99.99,,2013-03-10 02:32:00,
2013-03-09 18:40:00,58.0,0.0,30.09,NNE,17,8.0,9.0,23,-99.99,,,-99.99,,2013-03-10 02:40:00,
2013-03-09 18:48:00,56.0,0.0,30.10,NNE,23,8.0,8.0,22,-99.99,,,-99.99,,2013-03-10 02:48:00,
2013-03-09 18:56:00,56.0,0.0,30.10,NNE,22,8.0,8.0,23,-99.99,,,-99.99,,2013-03-10 02:56:00,
2013-03-09 19:04:00,56.0,0.0,30.11,NNE,26,9.0,9.0,25,-99.99,,,-99.99,,2013-03-10 03:04:00,
2013-03-09 19:12:00,54.0,0.0,30.11,NNE,29,7.0,8.0,27,-99.99,,,-99.99,,2013-03-10 03:12:00,
2013-03-09 19:20:00,54.0,0.0,30.11,NE,34,9.0,9.0,25,-99.99,,,-99.99,,2013-03-10 03:20:00,
2013-03-09 19:28:00,53.0,0.0,30.12,North,361,8.0,8.0,26,-99.99,,,-99.99,,2013-03-10 03:28:00,
2013-03-09 19:36:00,53.0,0.0,30.12,North,361,7.0,7.0,27,-99.99,,,-99.99,,2013-03-10 03:36:00,
2013-03-09 19:44:00,53.0,0.0,30.12,West,274,7.0,7.0,29,-99.99,,,-99.99,,2013-03-10 03:44:00,
2013-03-09 19:52:00,54.0,0.0,30.13,West,276,5.0,5.0,24,-99.99,,,-99.99,,2013-03-10 03:52:00,
2013-03-09 20:00:00,54.0,0.0,30.13,NW,317,6.0,6.0,25,-99.99,,,-99.99,,2013-03-10 04:00:00,
2013-03-09 20:08:00,54.0,0.0,30.14,NW,311,3.0,3.0,22,-99.99,,,-99.99,,2013-03-10 04:08:00,
2013-03-09 20:16:00,53.0,0.0,30.14,North,361,7.0,7.0,27,-99.99,,,-99.99,,2013-03-10 04:16:00,
2013-03-09 20:24:00,52.0,0.0,30.14,North,361,9.0,9.0,28,-99.99,,,-99.99,,2013-03-10 04:24:00,
2013-03-09 20:32:00,52.0,0.0,30.14,NNE,22,10.0,10.0,27,-99.99,,,-99.99,,2013-03-10 04:32:00,
2013-03-09 20:40:00,53.0,0.0,30.15,NNE,24,10.0,10.0,22,-99.99,,,-99.99,,2013-03-10 04:40:00,
2013-03-09 20:48:00,53.0,0.0,30.16,NNE,17,10.0,10.0,22,-99.99,,,-99.99,,2013-03-10 04:48:00,
2013-03-09 20:56:00,51.0,0.0,30.16,NNW,336,7.0,7.0,27,-99.99,,,-99.99,,2013-03-10 04:56:00,
2013-03-09 21:00:00,50.0,0.0,30.16,North,356,8.0,9.0,26,-99.99,,,-99.99,,2013-03-10 05:00:00,
2013-03-09 21:04:00,52.0,0.0,30.16,North,361,8.0,8.0,24,-99.99,,,-99.99,,2013-03-10 05:04:00,
2013-03-09 21:08:00,52.0,0.0,30.16,North,5,8.0,9.0,22,-99.99,,,-99.99,,2013-03-10 05:08:00,
2013-03-09 21:12:00,52.0,0.0,30.16,North,7,14.0,14.0,23,-99.99,,,-99.99,,2013-03-10 05:12:00,
2013-03-09 21:20:00,54.0,0.0,30.17,North,0,15.0,16.0,19,-99.99,,,-99.99,,2013-03-10 05:20:00,
2013-03-09 21:28:00,54.0,0.0,30.17,North,361,14.0,14.0,21,-99.99,,,-99.99,,2013-03-10 05:28:00,
2013-03-09 21:36:00,51.0,0.0,30.18,North,0,6.0,7.0,24,-99.99,,,-99.99,,2013-03-10 05:36:00,
2013-03-09 21:44:00,51.0,0.0,30.18,NW,316,9.0,9.0,24,-99.99,,,-99.99,,2013-03-10 05:44:00,
2013-03-09 21:52:00,51.0,0.0,30.19,NW,304,7.0,8.0,22,-99.99,,,-99.99,,2013-03-10 05:52:00,
2013-03-09 22:00:00,53.0,0.0,30.19,NNW,341,12.0,13.0,22,-99.99,,,-99.99,,2013-03-10 06:00:00,
2013-03-09 22:08:00,52.0,0.0,30.19,NNW,334,7.0,8.0,21,-99.99,,,-99.99,,2013-03-10 06:08:00,
2013-03-09 22:16:00,51.0,0.0,30.20,NNW,336,6.0,6.0,23,-99.99,,,-99.99,,2013-03-10 06:16:00,
2013-03-09 22:24:00,51.0,0.0,30.20,NW,318,6.0,6.0,25,-99.99,,,-99.99,,2013-03-10 06:24:00,
2013-03-09 22:32:00,50.0,0.0,30.20,North,357,13.0,13.0,23,-99.99,,,-99.99,,2013-03-10 06:32:00,
2013-03-09 22:40:00,50.0,0.0,30.21,NNW,337,10.0,10.0,24,-99.99,,,-99.99,,2013-03-10 06:40:00,
2013-03-09 22:48:00,51.0,0.0,30.21,NNW,346,12.0,12.0,22,-99.99,,,-99.99,,2013-03-10 06:48:00,
2013-03-09 22:56:00,50.0,0.0,30.21,NNW,336,8.0,8.0,26,-99.99,,,-99.99,,2013-03-10 06:56:00,
2013-03-09 23:04:00,50.0,0.0,30.21,North,361,7.0,7.0,25,-99.99,,,-99.99,,2013-03-10 07:04:00,
2013-03-09 23:12:00,49.0,0.0,30.22,North,9,8.0,8.0,25,-99.99,,,-99.99,,2013-03-10 07:12:00,
2013-03-09 23:20:00,48.0,0.0,30.22,North,361,9.0,9.0,27,-99.99,,,-99.99,,2013-03-10 07:20:00,
2013-03-09 23:28:00,47.0,0.0,30.22,North,360,10.0,10.0,30,-99.99,,,-99.99,,2013-03-10 07:28:00,
2013-03-09 23:36:00,46.0,0.0,30.22,NNW,348,8.0,8.0,29,-99.99,,,-99.99,,2013-03-10 07:36:00,
2013-03-09 23:44:00,44.0,0.0,30.23,North,355,5.0,5.0,31,-99.99,,,-99.99,,2013-03-10 07:44:00,
2013-03-09 23:52:00,44.0,0.0,30.23,North,351,6.0,6.0,29,-99.99,,,-99.99,,2013-03-10 07:52:00,